Time;durP1;ratioP1;P1;durP2;ratioP2;P2;SDS_P1;SDS_P2;PMS_P1;PMS_P2;Temp;Humidity;BMP_temperature;BMP_pressure;BME280_temperature;BME280_humidity;BME280_pressure;Samples;Min_cycle;Max_cycle;Signal;HPM_P1;HPM_P2
2021/03/18 00:00:46;;;;;;;8.63;3.75;;;;;;;;;;5059015;28;20241;-81
2021/03/18 00:03:16;;;;;;;7.18;3.97;;;;;;;;;;5056342;28;20257;-80
2021/03/18 00:05:43;;;;;;;8.45;3.78;;;;;;;;;;5057044;28;20717;-84
2021/03/18 00:08:09;;;;;;;7.25;2.95;;;;;;;;;;5073178;28;20193;-81
2021/03/18 00:10:35;;;;;;;9.60;2.85;;;;;;;;;;5061788;28;20220;-81
2021/03/18 00:13:01;;;;;;;7.00;3.15;;;;;;;;;;5058673;28;20212;-87
2021/03/18 00:15:29;;;;;;;11.82;3.13;;;;;;;;;;5055498;28;20185;-81
2021/03/18 00:17:55;;;;;;;10.00;3.30;;;;;;;;;;5056450;28;20182;-81
2021/03/18 00:20:21;;;;;;;8.88;3.72;;;;;;;;;;5059806;28;20208;-81
2021/03/18 00:22:47;;;;;;;6.93;3.08;;;;;;;;;;5055548;28;20189;-82
2021/03/18 00:25:14;;;;;;;4.85;2.97;;;;;;;;;;5063212;28;20180;-78
2021/03/18 00:27:41;;;;;;;4.10;2.50;;;;;;;;;;5054914;28;20272;-81
2021/03/18 00:30:07;;;;;;;8.07;2.78;;;;;;;;;;5055124;28;20192;-82
2021/03/18 00:32:34;;;;;;;7.38;2.67;;;;;;;;;;5057423;28;20235;-81
2021/03/18 00:35:00;;;;;;;15.63;3.28;;;;;;;;;;5056916;28;20693;-82
2021/03/18 00:37:26;;;;;;;10.70;3.58;;;;;;;;;;5066064;28;20188;-81
2021/03/18 00:39:55;;;;;;;9.83;3.70;;;;;;;;;;5057524;28;20189;-82
2021/03/18 00:42:22;;;;;;;9.10;3.08;;;;;;;;;;5058758;28;21046;-81
2021/03/18 00:44:49;;;;;;;10.70;2.65;;;;;;;;;;5056695;28;20181;-81
2021/03/18 00:47:15;;;;;;;6.22;2.45;;;;;;;;;;5070650;28;20220;-82
2021/03/18 00:49:41;;;;;;;6.70;2.80;;;;;;;;;;5070238;28;20202;-81
2021/03/18 00:52:07;;;;;;;8.73;2.50;;;;;;;;;;5056998;28;20200;-83
2021/03/18 00:54:33;;;;;;;8.80;3.33;;;;;;;;;;5055245;28;20541;-82
2021/03/18 00:56:59;;;;;;;9.95;2.70;;;;;;;;;;5054804;28;20182;-82
2021/03/18 00:59:25;;;;;;;8.18;2.33;;;;;;;;;;5072082;28;20196;-84
2021/03/18 01:01:51;;;;;;;7.25;2.63;;;;;;;;;;5055536;28;20185;-82
2021/03/18 01:04:17;;;;;;;5.95;2.47;;;;;;;;;;5058324;28;20219;-82
2021/03/18 01:06:43;;;;;;;10.57;3.00;;;;;;;;;;5063761;28;20184;-85
2021/03/18 01:09:09;;;;;;;8.65;2.78;;;;;;;;;;5064480;28;20181;-83
2021/03/18 01:11:37;;;;;;;14.95;5.18;;;;;;;;;;5061827;28;20229;-81
2021/03/18 01:14:05;;;;;;;7.80;3.40;;;;;;;;;;5060041;28;20181;-80
2021/03/18 01:16:33;;;;;;;5.63;2.83;;;;;;;;;;5056846;28;20241;-80
2021/03/18 01:19:09;;;;;;;10.13;2.10;;;;;;;;;;5056383;28;20185;-81
2021/03/18 01:21:39;;;;;;;7.25;2.70;;;;;;;;;;5052764;28;20185;-81
2021/03/18 01:24:05;;;;;;;7.20;2.40;;;;;;;;;;5056144;28;20181;-87
2021/03/18 01:26:31;;;;;;;9.95;3.50;;;;;;;;;;5057314;28;20181;-82
2021/03/18 01:28:58;;;;;;;7.63;2.67;;;;;;;;;;5055928;28;20177;-82
2021/03/18 01:31:24;;;;;;;12.20;3.08;;;;;;;;;;5056007;28;20169;-82
2021/03/18 01:33:50;;;;;;;12.93;2.70;;;;;;;;;;5057720;28;20600;-83
2021/03/18 01:36:16;;;;;;;12.50;3.05;;;;;;;;;;5054142;28;20245;-81
2021/03/18 01:38:42;;;;;;;11.33;3.43;;;;;;;;;;5056742;28;20208;-81
2021/03/18 01:41:08;;;;;;;9.88;3.08;;;;;;;;;;5057659;28;20515;-82
2021/03/18 01:43:34;;;;;;;6.20;2.00;;;;;;;;;;5054703;28;20227;-82
2021/03/18 01:46:00;;;;;;;6.35;2.47;;;;;;;;;;5060305;28;20593;-81
2021/03/18 01:48:27;;;;;;;10.68;2.53;;;;;;;;;;5056514;28;20211;-82
2021/03/18 01:50:54;;;;;;;9.43;3.50;;;;;;;;;;5055003;28;20200;-82
2021/03/18 01:53:21;;;;;;;6.43;2.45;;;;;;;;;;5073610;28;20209;-82
2021/03/18 01:55:48;;;;;;;6.80;2.58;;;;;;;;;;5054513;28;20181;-81
2021/03/18 01:58:14;;;;;;;10.48;2.72;;;;;;;;;;5057857;28;20170;-82
2021/03/18 02:00:41;;;;;;;10.55;2.50;;;;;;;;;;5058322;28;20184;-82
2021/03/18 02:03:07;;;;;;;6.60;2.53;;;;;;;;;;5055092;28;20235;-81
2021/03/18 02:05:34;;;;;;;9.35;2.20;;;;;;;;;;5057676;28;20571;-80
2021/03/18 02:08:00;;;;;;;7.25;2.95;;;;;;;;;;5045237;28;20181;-81
2021/03/18 02:10:27;;;;;;;8.82;2.47;;;;;;;;;;5060830;28;20253;-81
2021/03/18 02:12:54;;;;;;;9.75;2.53;;;;;;;;;;5057723;28;20197;-81
2021/03/18 02:15:21;;;;;;;8.90;3.35;;;;;;;;;;5057390;28;20197;-82
2021/03/18 02:18:07;;;;;;;9.98;2.65;;;;;;;;;;5056584;28;20200;-82
2021/03/18 02:20:36;;;;;;;14.27;3.13;;;;;;;;;;5056912;28;20173;-82
2021/03/18 02:23:20;;;;;;;11.98;3.25;;;;;;;;;;5062922;28;20262;-82
2021/03/18 02:26:05;;;;;;;14.93;3.13;;;;;;;;;;5059791;28;20209;-81
2021/03/18 02:28:49;;;;;;;6.72;3.15;;;;;;;;;;5059561;28;20258;-81
2021/03/18 02:31:27;;;;;;;8.68;2.40;;;;;;;;;;5057608;28;20185;-82
2021/03/18 02:34:12;;;;;;;12.02;2.70;;;;;;;;;;5069290;28;20189;-81
2021/03/18 02:36:45;;;;;;;10.73;3.10;;;;;;;;;;5058090;28;20635;-82
2021/03/18 02:39:14;;;;;;;11.45;3.13;;;;;;;;;;5056793;28;20216;-81
2021/03/18 02:41:50;;;;;;;5.60;2.60;;;;;;;;;;5059030;28;20215;-82
2021/03/18 02:44:18;;;;;;;13.60;2.92;;;;;;;;;;5061317;28;20741;-82
2021/03/18 02:46:44;;;;;;;7.75;2.60;;;;;;;;;;5056127;28;20181;-81
2021/03/18 02:49:11;;;;;;;12.30;3.95;;;;;;;;;;5064093;28;20666;-81
2021/03/18 02:51:38;;;;;;;12.38;2.72;;;;;;;;;;5061181;28;20631;-82
2021/03/18 02:54:06;;;;;;;10.57;4.00;;;;;;;;;;5056785;28;20185;-82
2021/03/18 02:56:32;;;;;;;10.07;3.67;;;;;;;;;;5061107;28;20181;-82
2021/03/18 02:59:01;;;;;;;9.98;3.75;;;;;;;;;;5058147;28;20179;-82
2021/03/18 03:01:27;;;;;;;8.27;3.38;;;;;;;;;;5059169;28;20339;-81
2021/03/18 03:03:55;;;;;;;9.07;2.53;;;;;;;;;;5057855;28;20179;-82
2021/03/18 03:06:21;;;;;;;11.80;3.30;;;;;;;;;;5061780;28;20266;-82
2021/03/18 03:08:48;;;;;;;10.27;4.20;;;;;;;;;;5054308;28;20182;-82
2021/03/18 03:11:14;;;;;;;7.18;2.90;;;;;;;;;;5060259;28;20220;-82
2021/03/18 03:13:42;;;;;;;6.90;2.53;;;;;;;;;;5056661;28;20221;-81
2021/03/18 03:16:10;;;;;;;11.13;3.30;;;;;;;;;;5059469;28;20165;-82
2021/03/18 03:18:36;;;;;;;11.50;4.43;;;;;;;;;;5059953;28;20630;-81
2021/03/18 03:21:03;;;;;;;10.75;3.88;;;;;;;;;;5056144;28;20186;-81
2021/03/18 03:23:30;;;;;;;15.70;3.60;;;;;;;;;;5059717;28;20181;-82
2021/03/18 03:25:57;;;;;;;9.15;3.10;;;;;;;;;;5058455;28;20212;-82
2021/03/18 03:28:24;;;;;;;11.20;3.42;;;;;;;;;;5060036;28;20596;-82
2021/03/18 03:30:50;;;;;;;18.27;4.38;;;;;;;;;;5057099;28;20173;-81
2021/03/18 03:33:16;;;;;;;13.88;3.75;;;;;;;;;;5056119;28;20216;-81
2021/03/18 03:35:42;;;;;;;16.25;3.22;;;;;;;;;;5058704;28;20269;-82
2021/03/18 03:38:08;;;;;;;10.45;3.10;;;;;;;;;;5058787;28;20261;-82
2021/03/18 03:40:34;;;;;;;15.55;4.18;;;;;;;;;;5057975;28;20177;-82
2021/03/18 03:43:01;;;;;;;12.65;3.75;;;;;;;;;;5058296;28;20182;-81
2021/03/18 03:45:27;;;;;;;7.80;3.03;;;;;;;;;;5059910;28;20182;-83
2021/03/18 03:47:53;;;;;;;8.25;3.20;;;;;;;;;;5056636;28;20201;-82
2021/03/18 03:50:20;;;;;;;11.02;4.25;;;;;;;;;;5059882;28;20195;-81
2021/03/18 03:53:05;;;;;;;14.05;3.03;;;;;;;;;;5055591;28;20224;-82
2021/03/18 03:55:37;;;;;;;8.63;3.03;;;;;;;;;;5060295;28;20173;-81
2021/03/18 03:58:10;;;;;;;13.50;3.17;;;;;;;;;;5057838;28;20184;-82
2021/03/18 04:00:38;;;;;;;6.80;2.60;;;;;;;;;;5055760;28;20185;-83
2021/03/18 04:03:06;;;;;;;11.55;3.35;;;;;;;;;;5055644;28;20269;-82
2021/03/18 04:05:33;;;;;;;13.88;3.05;;;;;;;;;;5059813;28;20189;-82
2021/03/18 04:08:00;;;;;;;7.60;3.17;;;;;;;;;;5056928;28;20223;-82
2021/03/18 04:10:27;;;;;;;7.88;3.00;;;;;;;;;;5046707;28;20189;-82
2021/03/18 04:12:54;;;;;;;18.77;4.43;;;;;;;;;;5056847;28;20208;-84
2021/03/18 04:15:21;;;;;;;6.32;3.03;;;;;;;;;;5055542;28;20180;-81
2021/03/18 04:17:51;;;;;;;12.27;3.50;;;;;;;;;;5056130;28;20182;-81
2021/03/18 04:20:18;;;;;;;8.88;2.67;;;;;;;;;;5073947;28;20272;-81
2021/03/18 04:22:48;;;;;;;10.93;2.80;;;;;;;;;;5066738;28;20185;-81
2021/03/18 04:25:14;;;;;;;16.35;3.63;;;;;;;;;;5069090;28;20176;-82
2021/03/18 04:27:41;;;;;;;12.75;2.85;;;;;;;;;;5058216;28;20200;-81
2021/03/18 04:30:09;;;;;;;13.52;3.50;;;;;;;;;;5056233;28;20191;-81
2021/03/18 04:32:35;;;;;;;12.88;2.78;;;;;;;;;;5057512;28;20443;-81
2021/03/18 04:35:01;;;;;;;9.35;2.60;;;;;;;;;;5072114;28;20581;-82
2021/03/18 04:37:27;;;;;;;8.93;4.00;;;;;;;;;;5055776;28;20253;-82
2021/03/18 04:39:54;;;;;;;6.80;2.13;;;;;;;;;;5057640;28;20173;-82
2021/03/18 04:42:21;;;;;;;4.03;2.50;;;;;;;;;;5054781;28;20189;-81
2021/03/18 04:44:47;;;;;;;8.60;2.75;;;;;;;;;;5056255;28;20189;-82
2021/03/18 04:47:17;;;;;;;4.60;2.63;;;;;;;;;;5073911;28;20187;-82
2021/03/18 04:49:44;;;;;;;6.55;2.53;;;;;;;;;;5064913;28;20197;-81
2021/03/18 04:52:12;;;;;;;13.68;3.33;;;;;;;;;;5057915;28;20193;-81
2021/03/18 04:54:38;;;;;;;5.05;2.00;;;;;;;;;;5059284;28;20177;-82
2021/03/18 04:57:04;;;;;;;8.02;3.22;;;;;;;;;;5055386;28;20688;-81
2021/03/18 04:59:31;;;;;;;8.68;2.42;;;;;;;;;;5056861;28;20181;-82
2021/03/18 05:01:57;;;;;;;11.30;3.60;;;;;;;;;;5056694;28;20528;-82
2021/03/18 05:04:23;;;;;;;6.22;2.90;;;;;;;;;;5056272;28;20181;-81
2021/03/18 05:06:54;;;;;;;9.82;2.35;;;;;;;;;;5060853;28;20181;-82
2021/03/18 05:09:20;;;;;;;7.30;2.55;;;;;;;;;;5057726;28;20181;-82
2021/03/18 05:11:46;;;;;;;11.68;2.92;;;;;;;;;;5055542;28;20225;-82
2021/03/18 05:14:13;;;;;;;10.93;2.88;;;;;;;;;;5073089;28;20192;-82
2021/03/18 05:16:40;;;;;;;9.80;2.90;;;;;;;;;;5054229;28;20193;-81
2021/03/18 05:19:08;;;;;;;10.75;3.00;;;;;;;;;;5060411;28;20608;-82
2021/03/18 05:21:35;;;;;;;7.13;2.63;;;;;;;;;;5058516;28;20206;-81
2021/03/18 05:24:02;;;;;;;7.93;2.80;;;;;;;;;;5055532;28;20212;-82
2021/03/18 05:26:28;;;;;;;7.97;2.58;;;;;;;;;;5046711;28;20185;-81
2021/03/18 05:28:54;;;;;;;9.25;2.90;;;;;;;;;;5059485;28;20185;-82
2021/03/18 05:31:23;;;;;;;12.55;3.15;;;;;;;;;;5056621;28;20192;-81
2021/03/18 05:33:51;;;;;;;8.20;2.30;;;;;;;;;;5070664;28;20208;-82
2021/03/18 05:36:17;;;;;;;6.05;1.92;;;;;;;;;;5054268;28;20173;-82
2021/03/18 05:38:43;;;;;;;11.57;2.65;;;;;;;;;;5055544;28;20185;-82
2021/03/18 05:41:09;;;;;;;15.38;3.05;;;;;;;;;;5057428;28;20182;-82
2021/03/18 05:43:35;;;;;;;5.95;2.38;;;;;;;;;;5054840;28;20189;-82
2021/03/18 05:46:02;;;;;;;15.25;3.88;;;;;;;;;;5056117;28;20189;-82
2021/03/18 05:48:29;;;;;;;6.45;2.80;;;;;;;;;;5053958;28;20272;-82
2021/03/18 05:50:55;;;;;;;14.07;3.10;;;;;;;;;;5055001;28;20240;-83
2021/03/18 05:53:22;;;;;;;11.32;4.10;;;;;;;;;;5070914;28;20277;-82
2021/03/18 05:55:50;;;;;;;8.05;2.67;;;;;;;;;;5069630;28;20661;-83
2021/03/18 05:58:16;;;;;;;13.27;3.20;;;;;;;;;;5059243;28;20177;-83
2021/03/18 06:00:42;;;;;;;12.52;3.72;;;;;;;;;;5059626;28;20188;-82
2021/03/18 06:03:08;;;;;;;8.90;3.45;;;;;;;;;;5057616;28;20184;-82
2021/03/18 06:05:35;;;;;;;10.85;3.67;;;;;;;;;;5055006;28;20264;-82
2021/03/18 06:08:01;;;;;;;13.00;4.03;;;;;;;;;;5056423;28;20185;-82
2021/03/18 06:10:27;;;;;;;12.43;3.47;;;;;;;;;;5056014;28;20184;-82
2021/03/18 06:12:54;;;;;;;10.10;4.40;;;;;;;;;;5059651;28;20208;-83
2021/03/18 06:15:20;;;;;;;13.77;4.88;;;;;;;;;;5063631;28;20182;-82
2021/03/18 06:17:47;;;;;;;10.75;4.18;;;;;;;;;;5066715;28;20208;-85
2021/03/18 06:20:14;;;;;;;16.73;5.60;;;;;;;;;;5050125;28;20351;-82
2021/03/18 06:22:45;;;;;;;11.02;3.45;;;;;;;;;;5064238;28;20235;-85
2021/03/18 06:25:28;;;;;;;13.73;3.97;;;;;;;;;;5064282;28;20536;-82
2021/03/18 06:28:14;;;;;;;14.52;4.35;;;;;;;;;;5061446;28;20188;-83
2021/03/18 06:30:41;;;;;;;8.65;3.85;;;;;;;;;;5057945;28;20688;-84
2021/03/18 06:33:23;;;;;;;11.80;3.95;;;;;;;;;;5058515;28;20205;-82
2021/03/18 06:35:49;;;;;;;18.00;3.80;;;;;;;;;;5059611;28;20614;-83
2021/03/18 06:38:15;;;;;;;10.00;3.50;;;;;;;;;;5073460;28;20719;-83
2021/03/18 06:40:42;;;;;;;16.50;4.80;;;;;;;;;;5083800;28;20177;-83
2021/03/18 06:43:10;;;;;;;12.48;3.42;;;;;;;;;;5060496;28;20183;-84
2021/03/18 06:45:37;;;;;;;10.38;3.80;;;;;;;;;;5061853;28;20249;-84
2021/03/18 06:48:08;;;;;;;8.55;3.50;;;;;;;;;;5060571;28;20193;-84
2021/03/18 06:50:34;;;;;;;7.68;3.40;;;;;;;;;;5059499;28;20193;-84
2021/03/18 06:53:00;;;;;;;12.57;3.55;;;;;;;;;;5058560;28;20206;-84
2021/03/18 06:55:31;;;;;;;9.32;4.40;;;;;;;;;;5058634;28;20183;-84
2021/03/18 06:58:15;;;;;;;9.48;4.00;;;;;;;;;;5061805;28;20173;-83
2021/03/18 07:00:42;;;;;;;12.55;4.30;;;;;;;;;;5057117;28;20185;-82
2021/03/18 07:03:09;;;;;;;11.80;4.03;;;;;;;;;;5057245;28;20189;-87
2021/03/18 07:05:40;;;;;;;8.15;4.70;;;;;;;;;;5062036;28;20235;-86
2021/03/18 07:08:06;;;;;;;11.27;4.20;;;;;;;;;;5061293;28;20189;-83
2021/03/18 07:10:34;;;;;;;14.40;4.70;;;;;;;;;;5061145;28;20186;-84
2021/03/18 07:13:19;;;;;;;15.70;5.00;;;;;;;;;;5063007;28;20243;-84
2021/03/18 07:15:46;;;;;;;13.48;4.45;;;;;;;;;;5059607;28;20618;-87
2021/03/18 07:18:13;;;;;;;16.27;5.60;;;;;;;;;;5055229;28;20230;-84
2021/03/18 07:20:39;;;;;;;17.55;5.85;;;;;;;;;;5067537;28;20609;-84
2021/03/18 07:23:12;;;;;;;11.70;4.45;;;;;;;;;;5058800;28;20181;-83
2021/03/18 07:25:45;;;;;;;14.38;5.93;;;;;;;;;;5062036;28;20271;-84
2021/03/18 07:28:14;;;;;;;10.55;4.35;;;;;;;;;;5061460;28;20176;-83
2021/03/18 07:30:40;;;;;;;13.15;4.90;;;;;;;;;;5060363;28;20208;-83
2021/03/18 07:33:06;;;;;;;16.73;6.22;;;;;;;;;;5063550;28;20559;-82
2021/03/18 07:35:32;;;;;;;21.02;5.50;;;;;;;;;;5059730;28;20250;-84
2021/03/18 07:37:59;;;;;;;12.70;4.65;;;;;;;;;;5056937;28;20231;-85
2021/03/18 07:40:26;;;;;;;20.00;5.07;;;;;;;;;;5057150;28;20197;-81
2021/03/18 07:42:53;;;;;;;16.13;5.75;;;;;;;;;;5059502;28;20212;-81
2021/03/18 07:45:20;;;;;;;9.95;4.72;;;;;;;;;;5055047;28;20208;-82
2021/03/18 07:47:46;;;;;;;16.83;4.50;;;;;;;;;;5058557;28;20193;-80
2021/03/18 07:50:13;;;;;;;12.98;5.75;;;;;;;;;;5057846;28;20681;-84
2021/03/18 07:52:40;;;;;;;16.88;5.80;;;;;;;;;;5051960;28;20213;-83
2021/03/18 07:55:09;;;;;;;12.90;4.97;;;;;;;;;;5058312;28;20180;-81
2021/03/18 07:57:43;;;;;;;14.30;5.53;;;;;;;;;;5053557;28;20185;-80
2021/03/18 08:00:13;;;;;;;20.73;4.28;;;;;;;;;;5054698;28;20192;-78
2021/03/18 08:02:39;;;;;;;13.77;4.75;;;;;;;;;;5048588;28;20253;-80
2021/03/18 08:05:06;;;;;;;15.98;5.00;;;;;;;;;;5058406;28;20265;-81
2021/03/18 08:07:40;;;;;;;17.67;5.43;;;;;;;;;;5058179;28;20308;-80
2021/03/18 08:10:26;;;;;;;18.40;5.53;;;;;;;;;;5057324;28;20194;-82
2021/03/18 08:12:57;;;;;;;13.85;5.50;;;;;;;;;;5056474;28;20221;-79
2021/03/18 08:15:29;;;;;;;12.25;4.82;;;;;;;;;;5060638;28;20288;-81
2021/03/18 08:17:56;;;;;;;11.27;6.13;;;;;;;;;;5054482;28;20192;-80
2021/03/18 08:20:40;;;;;;;15.63;5.45;;;;;;;;;;5059131;28;20185;-81
2021/03/18 08:23:24;;;;;;;15.23;5.00;;;;;;;;;;5058284;28;20185;-79
2021/03/18 08:26:11;;;;;;;18.65;4.65;;;;;;;;;;5056208;28;20181;-79
2021/03/18 08:28:40;;;;;;;14.15;5.15;;;;;;;;;;5060347;28;20193;-79
2021/03/18 08:31:07;;;;;;;15.98;4.90;;;;;;;;;;5061278;28;20177;-79
2021/03/18 08:33:38;;;;;;;17.13;4.82;;;;;;;;;;5057912;28;20211;-79
2021/03/18 08:36:19;;;;;;;11.10;4.85;;;;;;;;;;5052052;28;20181;-80
2021/03/18 08:38:45;;;;;;;17.42;4.60;;;;;;;;;;5058039;28;20186;-78
2021/03/18 08:41:23;;;;;;;19.27;5.63;;;;;;;;;;5070353;28;20193;-79
2021/03/18 08:44:08;;;;;;;15.50;4.40;;;;;;;;;;5055228;28;20200;-79
2021/03/18 08:46:38;;;;;;;13.30;4.43;;;;;;;;;;5055748;28;20205;-78
2021/03/18 08:49:24;;;;;;;14.98;4.63;;;;;;;;;;5056897;28;20177;-78
2021/03/18 08:51:51;;;;;;;15.10;4.03;;;;;;;;;;5037898;28;20204;-78
2021/03/18 08:54:36;;;;;;;9.75;4.05;;;;;;;;;;5058600;28;20195;-78
2021/03/18 08:57:02;;;;;;;19.55;4.25;;;;;;;;;;5040601;28;20187;-80
2021/03/18 08:59:28;;;;;;;10.73;3.90;;;;;;;;;;5056465;28;20276;-78
2021/03/18 09:02:03;;;;;;;14.68;4.72;;;;;;;;;;5059644;28;20185;-79
2021/03/18 09:04:49;;;;;;;19.70;5.13;;;;;;;;;;5060597;28;20216;-77
2021/03/18 09:07:16;;;;;;;9.40;3.90;;;;;;;;;;5044222;28;20632;-78
2021/03/18 09:09:42;;;;;;;12.57;3.97;;;;;;;;;;5059229;28;20231;-78
2021/03/18 09:12:09;;;;;;;17.38;4.47;;;;;;;;;;5039077;28;20233;-79
2021/03/18 09:14:36;;;;;;;9.23;4.18;;;;;;;;;;5060087;28;20185;-79
2021/03/18 09:17:03;;;;;;;9.52;4.30;;;;;;;;;;5058970;28;20203;-79
2021/03/18 09:19:29;;;;;;;13.10;3.85;;;;;;;;;;5055644;28;20235;-78
2021/03/18 09:21:55;;;;;;;15.98;3.65;;;;;;;;;;5046819;28;20263;-79
2021/03/18 09:24:21;;;;;;;13.68;4.57;;;;;;;;;;5058036;28;20196;-79
2021/03/18 09:26:47;;;;;;;12.18;4.45;;;;;;;;;;5038514;28;20205;-79
2021/03/18 09:29:13;;;;;;;15.82;4.53;;;;;;;;;;5056352;28;20197;-78
2021/03/18 09:31:39;;;;;;;11.60;3.17;;;;;;;;;;5054925;28;20193;-79
2021/03/18 09:34:06;;;;;;;16.52;4.53;;;;;;;;;;5060050;28;20181;-79
2021/03/18 09:36:33;;;;;;;11.60;3.60;;;;;;;;;;5055578;28;20335;-79
2021/03/18 09:39:05;;;;;;;10.23;3.67;;;;;;;;;;5058041;28;20206;-79
2021/03/18 09:41:33;;;;;;;12.73;3.20;;;;;;;;;;5054079;28;20184;-80
2021/03/18 09:44:12;;;;;;;9.68;3.33;;;;;;;;;;5057493;28;20260;-79
2021/03/18 09:46:39;;;;;;;12.93;3.50;;;;;;;;;;5061908;28;20180;-80
2021/03/18 09:49:06;;;;;;;11.50;3.80;;;;;;;;;;5063395;28;20195;-82
2021/03/18 09:51:39;;;;;;;9.25;3.40;;;;;;;;;;5059396;28;20509;-79
2021/03/18 09:54:07;;;;;;;6.80;3.30;;;;;;;;;;5060110;28;20851;-79
2021/03/18 09:56:40;;;;;;;6.28;4.05;;;;;;;;;;5059457;28;20674;-78
2021/03/18 09:59:07;;;;;;;11.95;3.80;;;;;;;;;;5060496;28;20312;-83
2021/03/18 10:01:34;;;;;;;10.07;3.50;;;;;;;;;;5061440;28;20169;-80
2021/03/18 10:04:07;;;;;;;8.57;3.22;;;;;;;;;;5059920;28;20183;-79
2021/03/18 10:06:39;;;;;;;7.38;2.92;;;;;;;;;;5062943;28;20188;-80
2021/03/18 10:09:19;;;;;;;11.65;3.55;;;;;;;;;;5060754;28;20185;-80
2021/03/18 10:11:48;;;;;;;11.57;3.70;;;;;;;;;;5058664;28;20217;-80
2021/03/18 10:14:16;;;;;;;17.02;3.60;;;;;;;;;;5060427;28;20181;-80
2021/03/18 10:16:42;;;;;;;19.60;3.95;;;;;;;;;;5063565;28;20211;-81
2021/03/18 10:19:08;;;;;;;7.30;3.10;;;;;;;;;;5065737;28;20221;-80
2021/03/18 10:21:35;;;;;;;10.23;3.53;;;;;;;;;;5060822;28;20192;-80
2021/03/18 10:24:01;;;;;;;8.18;3.65;;;;;;;;;;5057939;28;20182;-78
2021/03/18 10:26:27;;;;;;;7.70;2.88;;;;;;;;;;5058964;28;20186;-78
2021/03/18 10:29:00;;;;;;;10.70;4.60;;;;;;;;;;5062477;28;20185;-79
2021/03/18 10:31:26;;;;;;;9.95;3.53;;;;;;;;;;5059120;28;20177;-81
2021/03/18 10:33:52;;;;;;;7.80;3.20;;;;;;;;;;5057979;28;20200;-80
2021/03/18 10:36:32;;;;;;;14.75;4.90;;;;;;;;;;5059446;28;20588;-79
2021/03/18 10:38:59;;;;;;;13.25;3.55;;;;;;;;;;5061731;28;20181;-79
2021/03/18 10:41:25;;;;;;;10.40;3.33;;;;;;;;;;5061099;28;20549;-79
2021/03/18 10:43:55;;;;;;;11.73;3.70;;;;;;;;;;5072596;28;20181;-78
2021/03/18 10:46:28;;;;;;;11.07;3.70;;;;;;;;;;5058998;28;20647;-79
2021/03/18 10:48:55;;;;;;;14.63;3.67;;;;;;;;;;5076053;28;20177;-79
2021/03/18 10:51:21;;;;;;;8.50;2.60;;;;;;;;;;5060038;28;20193;-82
2021/03/18 10:53:49;;;;;;;9.10;3.35;;;;;;;;;;5056923;28;20212;-81
2021/03/18 10:56:17;;;;;;;11.45;4.00;;;;;;;;;;5052265;28;20181;-80
2021/03/18 10:58:44;;;;;;;10.82;3.40;;;;;;;;;;5056968;28;20177;-78
2021/03/18 11:01:11;;;;;;;10.85;4.03;;;;;;;;;;5061579;28;20177;-82
2021/03/18 11:03:38;;;;;;;7.90;3.50;;;;;;;;;;5060591;28;20630;-79
2021/03/18 11:06:20;;;;;;;8.07;3.53;;;;;;;;;;5055634;28;20204;-78
2021/03/18 11:08:47;;;;;;;8.80;3.40;;;;;;;;;;5058882;28;20307;-79
2021/03/18 11:11:14;;;;;;;12.32;3.10;;;;;;;;;;5059760;28;20272;-81
2021/03/18 11:13:43;;;;;;;7.70;3.55;;;;;;;;;;5056016;28;20687;-79
2021/03/18 11:16:10;;;;;;;10.15;3.17;;;;;;;;;;5059161;28;20157;-88
2021/03/18 11:18:36;;;;;;;8.55;3.30;;;;;;;;;;5061462;28;20242;-78
2021/03/18 11:21:03;;;;;;;7.60;2.30;;;;;;;;;;5058504;28;20184;-80
2021/03/18 11:23:37;;;;;;;6.68;2.45;;;;;;;;;;5062637;28;20200;-82
2021/03/18 11:26:06;;;;;;;5.38;2.60;;;;;;;;;;5058175;28;20214;-80
2021/03/18 11:28:33;;;;;;;4.25;1.85;;;;;;;;;;5058413;28;20200;-80
2021/03/18 11:31:00;;;;;;;6.32;2.30;;;;;;;;;;5057688;28;20177;-80
2021/03/18 11:33:29;;;;;;;6.00;2.83;;;;;;;;;;5062266;28;20231;-83
2021/03/18 11:35:55;;;;;;;3.50;1.85;;;;;;;;;;5063736;28;20269;-79
2021/03/18 11:38:21;;;;;;;4.13;2.00;;;;;;;;;;5068939;28;20178;-83
2021/03/18 11:40:47;;;;;;;3.88;1.80;;;;;;;;;;5060479;28;20701;-80
2021/03/18 11:43:14;;;;;;;4.88;2.05;;;;;;;;;;5059005;28;20236;-80
2021/03/18 11:45:40;;;;;;;8.30;2.38;;;;;;;;;;5055201;28;20181;-80
2021/03/18 11:48:06;;;;;;;4.00;1.60;;;;;;;;;;5057256;28;20612;-81
2021/03/18 11:50:33;;;;;;;6.45;2.13;;;;;;;;;;5059502;28;20193;-79
2021/03/18 11:53:00;;;;;;;3.88;2.00;;;;;;;;;;5055511;28;20210;-78
2021/03/18 11:55:26;;;;;;;4.78;1.52;;;;;;;;;;5056920;28;20184;-80
2021/03/18 11:57:59;;;;;;;5.65;2.08;;;;;;;;;;5061614;28;20177;-78
2021/03/18 12:00:26;;;;;;;9.35;2.42;;;;;;;;;;5055542;28;20449;-81
2021/03/18 12:02:52;;;;;;;5.75;2.95;;;;;;;;;;5056465;28;20188;-79
2021/03/18 12:05:18;;;;;;;6.95;2.28;;;;;;;;;;5060144;28;20272;-79
2021/03/18 12:07:45;;;;;;;7.32;2.67;;;;;;;;;;5071353;28;20236;-80
2021/03/18 12:10:11;;;;;;;5.38;1.85;;;;;;;;;;5058710;28;20252;-81
2021/03/18 12:12:37;;;;;;;6.07;2.95;;;;;;;;;;5054438;28;20232;-79
2021/03/18 12:15:04;;;;;;;8.03;2.27;;;;;;;;;;5058297;28;20185;-82
2021/03/18 12:17:30;;;;;;;7.97;2.28;;;;;;;;;;5058163;28;20455;-83
2021/03/18 12:19:56;;;;;;;5.15;2.47;;;;;;;;;;5070193;28;20189;-82
2021/03/18 12:22:22;;;;;;;8.27;2.88;;;;;;;;;;5063312;28;20204;-80
2021/03/18 12:24:48;;;;;;;4.13;2.53;;;;;;;;;;5056518;28;20181;-80
2021/03/18 12:27:14;;;;;;;4.25;2.60;;;;;;;;;;5053866;28;20695;-80
2021/03/18 12:29:40;;;;;;;6.63;2.90;;;;;;;;;;5058199;28;20204;-80
2021/03/18 12:32:06;;;;;;;4.07;1.80;;;;;;;;;;5059255;28;20220;-82
2021/03/18 12:34:32;;;;;;;5.10;2.15;;;;;;;;;;5061230;28;20204;-81
2021/03/18 12:36:58;;;;;;;3.63;1.90;;;;;;;;;;5059776;28;20213;-79
2021/03/18 12:39:24;;;;;;;5.03;2.10;;;;;;;;;;5058783;28;20444;-83
2021/03/18 12:41:50;;;;;;;2.47;2.20;;;;;;;;;;5056467;28;20181;-82
2021/03/18 12:44:16;;;;;;;4.13;2.13;;;;;;;;;;5059223;28;20514;-82
2021/03/18 12:46:43;;;;;;;2.38;1.95;;;;;;;;;;5075211;28;20207;-81
2021/03/18 12:49:09;;;;;;;4.65;2.83;;;;;;;;;;5055749;28;20169;-77
2021/03/18 12:51:36;;;;;;;6.15;2.38;;;;;;;;;;5054280;28;20193;-82
2021/03/18 12:54:02;;;;;;;4.80;1.98;;;;;;;;;;5061063;28;20200;-81
2021/03/18 12:56:28;;;;;;;6.10;2.28;;;;;;;;;;5057580;28;20548;-81
2021/03/18 12:58:54;;;;;;;5.00;2.38;;;;;;;;;;5070035;28;20194;-78
2021/03/18 13:01:20;;;;;;;5.95;2.20;;;;;;;;;;5057318;28;20173;-81
2021/03/18 13:03:47;;;;;;;3.78;1.90;;;;;;;;;;5054972;28;20183;-79
2021/03/18 13:06:13;;;;;;;4.63;1.80;;;;;;;;;;5056233;28;20186;-80
2021/03/18 13:08:39;;;;;;;2.58;2.03;;;;;;;;;;5056804;28;20195;-81
2021/03/18 13:11:05;;;;;;;6.97;2.33;;;;;;;;;;5071422;28;20237;-81
2021/03/18 13:13:32;;;;;;;2.95;1.63;;;;;;;;;;5056229;28;20226;-79
2021/03/18 13:15:58;;;;;;;4.70;1.60;;;;;;;;;;5056135;28;20303;-83
2021/03/18 13:18:24;;;;;;;1.90;1.60;;;;;;;;;;5057617;28;20339;-82
2021/03/18 13:20:50;;;;;;;2.72;1.83;;;;;;;;;;5055963;28;20181;-82
2021/03/18 13:23:16;;;;;;;5.15;1.75;;;;;;;;;;5071255;28;20213;-79
2021/03/18 13:25:42;;;;;;;8.35;2.40;;;;;;;;;;5070664;28;20223;-81
2021/03/18 13:28:08;;;;;;;4.15;2.25;;;;;;;;;;5056664;28;20191;-78
2021/03/18 13:30:37;;;;;;;2.58;2.30;;;;;;;;;;5054173;28;20196;-79
2021/03/18 13:33:03;;;;;;;2.42;2.20;;;;;;;;;;5058812;28;20197;-84
2021/03/18 13:35:29;;;;;;;3.80;1.93;;;;;;;;;;5058166;28;20181;-78
2021/03/18 13:37:57;;;;;;;2.97;2.28;;;;;;;;;;5069800;28;20428;-80
2021/03/18 13:40:23;;;;;;;5.13;1.88;;;;;;;;;;5057246;28;20162;-79
2021/03/18 13:42:49;;;;;;;2.22;2.00;;;;;;;;;;5055034;28;20184;-83
2021/03/18 13:45:15;;;;;;;2.90;2.70;;;;;;;;;;5053769;28;20208;-81
2021/03/18 13:47:42;;;;;;;4.40;2.80;;;;;;;;;;5056971;28;20193;-81
2021/03/18 13:50:08;;;;;;;4.22;2.47;;;;;;;;;;5071414;28;20193;-78
2021/03/18 13:52:35;;;;;;;6.30;2.95;;;;;;;;;;5056960;28;20196;-80
2021/03/18 13:55:01;;;;;;;4.38;2.80;;;;;;;;;;5055977;28;20213;-86
2021/03/18 13:57:27;;;;;;;4.53;2.50;;;;;;;;;;5056352;28;20183;-80
2021/03/18 13:59:53;;;;;;;2.33;2.13;;;;;;;;;;5053732;28;20190;-81
2021/03/18 14:02:19;;;;;;;5.80;2.28;;;;;;;;;;5056612;28;20189;-79
2021/03/18 14:04:46;;;;;;;3.45;2.00;;;;;;;;;;5053234;28;20201;-81
2021/03/18 14:07:15;;;;;;;3.88;1.90;;;;;;;;;;5061346;28;20714;-82
2021/03/18 14:09:42;;;;;;;3.33;2.00;;;;;;;;;;5057719;28;20195;-80
2021/03/18 14:12:09;;;;;;;2.10;1.80;;;;;;;;;;5054330;28;20257;-81
2021/03/18 14:14:35;;;;;;;3.90;2.13;;;;;;;;;;5047645;28;20211;-79
2021/03/18 14:17:02;;;;;;;3.60;3.25;;;;;;;;;;5059435;28;20194;-80
2021/03/18 14:19:28;;;;;;;2.38;1.95;;;;;;;;;;5054501;28;20177;-79
2021/03/18 14:21:54;;;;;;;4.30;2.70;;;;;;;;;;5057291;28;20241;-81
2021/03/18 14:24:20;;;;;;;1.77;1.58;;;;;;;;;;5055755;28;20240;-80
2021/03/18 14:26:46;;;;;;;1.73;1.50;;;;;;;;;;5049193;28;20177;-81
2021/03/18 14:29:12;;;;;;;3.30;1.97;;;;;;;;;;5057593;28;20715;-81
2021/03/18 14:31:38;;;;;;;2.90;1.63;;;;;;;;;;5056069;28;20412;-81
2021/03/18 14:34:04;;;;;;;2.60;1.50;;;;;;;;;;5063310;28;20459;-81
2021/03/18 14:36:30;;;;;;;2.67;1.60;;;;;;;;;;5056656;28;20440;-80
2021/03/18 14:38:56;;;;;;;1.60;1.50;;;;;;;;;;5056308;28;20209;-80
2021/03/18 14:41:23;;;;;;;2.40;2.03;;;;;;;;;;5073519;28;20190;-81
2021/03/18 14:43:49;;;;;;;2.58;1.98;;;;;;;;;;5071976;28;20193;-82